createdAt,value
2019-03-22T00:02:20.513Z,4.37
2019-03-22T00:04:46.850Z,3.97
2019-03-22T00:07:13.106Z,3.73
2019-03-22T00:09:39.248Z,3.27
2019-03-22T00:12:05.606Z,4.10
2019-03-22T00:14:31.830Z,4.33
2019-03-22T00:16:57.985Z,3.47
2019-03-22T00:19:24.229Z,3.87
2019-03-22T00:21:50.579Z,4.03
2019-03-22T00:24:16.696Z,3.53
2019-03-22T00:26:42.934Z,3.23
2019-03-22T00:29:09.291Z,3.23
2019-03-22T00:31:35.800Z,3.10
2019-03-22T00:34:02.088Z,3.50
2019-03-22T00:36:28.460Z,3.63
2019-03-22T00:38:54.800Z,3.87
2019-03-22T00:41:21.145Z,4.23
2019-03-22T00:43:47.430Z,4.20
2019-03-22T00:46:13.643Z,3.67
2019-03-22T00:48:39.785Z,3.53
2019-03-22T00:51:06.018Z,3.60
2019-03-22T00:53:32.168Z,3.37
2019-03-22T00:55:58.430Z,3.97
2019-03-22T00:58:24.646Z,3.87
2019-03-22T01:00:52.372Z,3.90
2019-03-22T01:03:18.933Z,3.90
2019-03-22T01:05:45.392Z,3.20
2019-03-22T01:08:11.538Z,3.60
2019-03-22T01:10:37.848Z,3.20
2019-03-22T01:13:04.132Z,3.53
2019-03-22T01:15:30.353Z,3.90
2019-03-22T01:17:56.688Z,3.70
2019-03-22T01:20:22.951Z,3.90
2019-03-22T01:22:49.131Z,3.67
2019-03-22T01:25:15.376Z,4.00
2019-03-22T01:27:41.726Z,4.63
2019-03-22T01:30:13.136Z,4.67
2019-03-22T01:32:39.475Z,4.57
2019-03-22T01:35:06.755Z,4.27
2019-03-22T01:37:32.889Z,4.10
2019-03-22T01:39:59.261Z,3.87
2019-03-22T01:42:25.463Z,4.03
2019-03-22T01:44:51.607Z,3.80
2019-03-22T01:47:17.981Z,4.03
2019-03-22T01:49:44.215Z,3.90
2019-03-22T01:52:10.567Z,3.93
2019-03-22T01:54:36.848Z,3.77
2019-03-22T01:57:03.116Z,3.10
2019-03-22T01:59:29.344Z,3.57
2019-03-22T02:01:55.606Z,3.90
2019-03-22T02:04:21.842Z,3.50
2019-03-22T02:06:48.077Z,3.50
2019-03-22T02:09:14.440Z,3.83
2019-03-22T02:11:40.610Z,3.57
2019-03-22T02:14:06.833Z,3.63
2019-03-22T02:16:33.279Z,3.90
2019-03-22T02:18:59.555Z,4.10
2019-03-22T02:21:25.975Z,4.43
2019-03-22T02:23:52.436Z,3.93
2019-03-22T02:26:18.656Z,3.67
2019-03-22T02:28:44.934Z,3.57
2019-03-22T02:31:11.221Z,4.67
2019-03-22T02:33:37.450Z,4.00
2019-03-22T02:36:03.737Z,4.17
2019-03-22T02:38:30.049Z,4.47
2019-03-22T02:40:56.191Z,4.77
2019-03-22T02:43:22.353Z,4.43
2019-03-22T02:45:48.615Z,4.83
2019-03-22T02:48:14.838Z,4.43
2019-03-22T02:50:41.107Z,5.40
2019-03-22T02:53:07.337Z,4.90
2019-03-22T02:55:33.565Z,5.17
2019-03-22T02:57:59.831Z,4.80
2019-03-22T03:00:26.256Z,5.50
2019-03-22T03:02:52.390Z,6.07
2019-03-22T03:05:18.521Z,5.40
2019-03-22T03:07:44.861Z,5.03
2019-03-22T03:10:13.559Z,4.70
2019-03-22T03:12:39.891Z,4.10
2019-03-22T03:15:08.974Z,4.50
2019-03-22T03:17:35.182Z,4.47
2019-03-22T03:20:02.245Z,5.13
2019-03-22T03:22:28.487Z,5.07
2019-03-22T03:24:54.669Z,4.70
2019-03-22T03:27:21.014Z,5.97
2019-03-22T03:29:47.208Z,4.47
2019-03-22T03:32:13.482Z,4.40
2019-03-22T03:34:39.725Z,4.80
2019-03-22T03:37:06.008Z,4.90
2019-03-22T03:39:32.264Z,4.83
2019-03-22T03:41:58.468Z,4.10
2019-03-22T03:44:24.691Z,4.20
2019-03-22T03:46:50.917Z,4.10
2019-03-22T03:49:17.169Z,4.20
2019-03-22T03:51:43.483Z,4.63
2019-03-22T03:54:09.639Z,4.67
2019-03-22T03:56:35.875Z,4.63
2019-03-22T03:59:02.155Z,4.40
2019-03-22T04:01:28.361Z,4.50
2019-03-22T04:03:54.726Z,4.13
2019-03-22T04:06:21.065Z,3.70
2019-03-22T04:08:47.492Z,4.17
2019-03-22T04:11:13.749Z,4.20
2019-03-22T04:13:39.976Z,4.63
2019-03-22T04:16:06.242Z,4.97
2019-03-22T04:18:32.450Z,4.90
2019-03-22T04:20:58.696Z,4.50
2019-03-22T04:23:24.926Z,4.97
2019-03-22T04:25:51.166Z,5.77
2019-03-22T04:28:18.338Z,4.77
2019-03-22T04:30:44.786Z,4.90
2019-03-22T04:33:11.010Z,4.90
2019-03-22T04:35:37.295Z,5.13
2019-03-22T04:38:03.545Z,6.73
2019-03-22T04:40:29.831Z,6.57
2019-03-22T04:42:56.788Z,6.80
2019-03-22T04:45:25.092Z,5.33
2019-03-22T04:47:55.205Z,5.43
2019-03-22T04:50:22.878Z,5.30
2019-03-22T04:52:49.916Z,5.97
2019-03-22T04:55:17.342Z,5.43
2019-03-22T04:57:44.004Z,5.40
2019-03-22T05:00:10.524Z,5.47
2019-03-22T05:02:37.337Z,5.40
2019-03-22T05:05:04.590Z,5.27
2019-03-22T05:07:31.300Z,5.27
2019-03-22T05:09:57.781Z,5.03
2019-03-22T05:12:24.803Z,4.97
2019-03-22T05:14:52.633Z,4.27
2019-03-22T05:17:18.966Z,4.77
2019-03-22T05:19:49.028Z,5.73
2019-03-22T05:22:16.457Z,6.13
2019-03-22T05:24:46.431Z,5.57
2019-03-22T05:27:13.672Z,4.80
2019-03-22T05:29:41.837Z,5.00
2019-03-22T05:32:10.469Z,6.00
2019-03-22T05:34:36.778Z,5.67
2019-03-22T05:37:03.530Z,4.77
2019-03-22T05:39:29.758Z,5.13
2019-03-22T05:41:56.137Z,5.30
2019-03-22T05:44:22.473Z,5.53
2019-03-22T05:46:49.042Z,4.57
2019-03-22T05:49:15.510Z,4.40
2019-03-22T05:51:41.730Z,4.77
2019-03-22T05:54:08.503Z,4.87
2019-03-22T05:56:34.708Z,4.30
2019-03-22T05:59:01.071Z,4.77
2019-03-22T06:01:29.484Z,4.40
2019-03-22T06:03:57.421Z,4.47
2019-03-22T06:06:23.640Z,4.10
2019-03-22T06:08:49.904Z,5.43
2019-03-22T06:11:16.199Z,4.73
2019-03-22T06:13:44.427Z,4.70
2019-03-22T06:16:10.475Z,5.17
2019-03-22T06:18:36.611Z,4.93
2019-03-22T06:21:03.630Z,4.77
2019-03-22T06:23:32.668Z,5.63
2019-03-22T06:26:01.648Z,5.54
2019-03-22T06:28:31.701Z,6.07
2019-03-22T06:30:58.120Z,6.73
2019-03-22T06:33:24.938Z,6.03
2019-03-22T06:35:51.930Z,5.90
2019-03-22T06:38:24.244Z,5.80
2019-03-22T06:40:51.083Z,6.00
2019-03-22T06:43:17.361Z,5.43
2019-03-22T06:45:43.760Z,5.20
2019-03-22T06:48:10.061Z,5.77
2019-03-22T06:50:42.209Z,5.97
2019-03-22T06:53:11.457Z,5.70
2019-03-22T06:55:37.857Z,5.83
2019-03-22T06:58:04.089Z,5.40
2019-03-22T07:00:30.465Z,5.47
2019-03-22T07:02:59.287Z,5.70
2019-03-22T07:05:25.727Z,5.20
2019-03-22T07:07:52.007Z,5.50
2019-03-22T07:10:19.306Z,5.80
2019-03-22T07:12:46.478Z,5.63
2019-03-22T07:15:12.955Z,6.10
2019-03-22T07:17:40.253Z,6.00
2019-03-22T07:20:07.791Z,5.47
2019-03-22T07:22:34.185Z,6.87
2019-03-22T07:25:00.461Z,6.57
2019-03-22T07:27:26.840Z,6.40
2019-03-22T07:29:54.052Z,6.40
2019-03-22T07:32:20.205Z,5.83
2019-03-22T07:34:46.438Z,6.30
2019-03-22T07:37:12.938Z,7.23
2019-03-22T07:39:39.167Z,6.83
2019-03-22T07:42:05.388Z,8.13
2019-03-22T07:44:31.686Z,9.67
2019-03-22T07:46:58.151Z,11.23
2019-03-22T07:49:24.400Z,11.07
2019-03-22T07:51:50.668Z,9.90
2019-03-22T07:54:16.893Z,9.53
2019-03-22T07:56:43.111Z,8.13
2019-03-22T07:59:11.967Z,7.77
2019-03-22T08:01:38.120Z,7.50
2019-03-22T08:04:04.351Z,6.70
2019-03-22T08:06:30.604Z,6.80
2019-03-22T08:08:58.787Z,6.30
2019-03-22T08:11:25.153Z,5.77
2019-03-22T08:13:51.431Z,5.30
2019-03-22T08:16:17.733Z,6.67
2019-03-22T08:18:44.024Z,6.30
2019-03-22T08:21:10.263Z,6.83
2019-03-22T08:23:36.592Z,6.50
2019-03-22T08:26:03.624Z,6.70
2019-03-22T08:28:29.939Z,8.23
2019-03-22T08:30:56.183Z,8.80
2019-03-22T08:33:24.009Z,7.67
2019-03-22T08:35:50.416Z,7.33
2019-03-22T08:38:17.618Z,8.20
2019-03-22T08:40:44.009Z,8.00
2019-03-22T08:43:10.336Z,10.05
2019-03-22T08:45:36.711Z,10.77
2019-03-22T08:48:03.274Z,10.72
2019-03-22T08:50:29.540Z,9.95
2019-03-22T08:52:55.801Z,9.95
2019-03-22T08:55:22.030Z,10.15
2019-03-22T08:57:48.280Z,10.90
2019-03-22T09:00:15.026Z,9.35
2019-03-22T09:02:41.276Z,10.10
2019-03-22T09:05:07.926Z,10.10
2019-03-22T09:07:34.135Z,10.25
2019-03-22T09:10:00.321Z,7.85
2019-03-22T09:12:26.994Z,8.38
2019-03-22T09:14:53.382Z,6.90
2019-03-22T09:17:19.824Z,7.12
2019-03-22T09:19:46.070Z,10.40
2019-03-22T09:22:12.325Z,10.10
2019-03-22T09:24:39.613Z,8.95
2019-03-22T09:27:06.141Z,7.45
2019-03-22T09:29:32.346Z,7.10
2019-03-22T09:31:58.590Z,5.50
2019-03-22T09:34:33.461Z,5.80
2019-03-22T09:36:52.927Z,5.90
2019-03-22T09:39:19.198Z,6.55
2019-03-22T09:41:45.583Z,6.17
2019-03-22T09:44:11.842Z,5.72
2019-03-22T09:46:38.047Z,7.55
2019-03-22T09:49:04.408Z,6.00
2019-03-22T09:51:30.802Z,7.10
2019-03-22T09:53:57.031Z,9.95
2019-03-22T09:56:23.311Z,7.37
2019-03-22T09:58:49.547Z,5.58
2019-03-22T10:01:23.504Z,7.22
2019-03-22T10:03:43.797Z,11.38
2019-03-22T10:06:10.038Z,8.95
2019-03-22T10:08:36.297Z,7.20
2019-03-22T10:11:02.644Z,7.10
2019-03-22T10:13:28.887Z,7.00
2019-03-22T10:15:55.205Z,6.12
2019-03-22T10:18:21.388Z,7.20
2019-03-22T10:20:47.527Z,6.75
2019-03-22T10:23:13.808Z,8.33
2019-03-22T10:25:40.085Z,5.42
2019-03-22T10:28:06.497Z,8.00
2019-03-22T10:30:32.713Z,10.18
2019-03-22T10:32:59.058Z,10.03
2019-03-22T10:35:26.639Z,10.72
2019-03-22T10:38:00.442Z,9.90
2019-03-22T10:40:21.119Z,7.55
2019-03-22T10:42:47.400Z,6.03
2019-03-22T10:45:13.724Z,5.47
2019-03-22T10:47:40.056Z,6.62
2019-03-22T10:50:07.596Z,7.05
2019-03-22T10:52:33.957Z,6.20
2019-03-22T10:55:13.879Z,5.87
2019-03-22T10:57:28.325Z,6.83
2019-03-22T10:59:54.614Z,5.15
2019-03-22T11:02:20.741Z,8.75
2019-03-22T11:04:46.882Z,8.25
2019-03-22T11:09:33.551Z,11.12
2019-03-22T11:12:00.060Z,5.87
2019-03-22T11:14:26.533Z,8.23
2019-03-22T11:16:54.552Z,10.53
2019-03-22T11:19:21.129Z,10.35
2019-03-22T11:21:47.801Z,7.92
2019-03-22T11:24:19.971Z,8.20
2019-03-22T11:26:46.704Z,9.18
2019-03-22T11:29:16.303Z,7.70
2019-03-22T11:31:46.385Z,7.28
2019-03-22T11:34:12.670Z,7.72
2019-03-22T11:36:39.234Z,9.03
2019-03-22T11:39:15.564Z,8.12
2019-03-22T11:41:40.818Z,9.55
2019-03-22T11:44:12.150Z,7.22
2019-03-22T11:46:38.758Z,7.15
2019-03-22T11:49:05.772Z,7.78
2019-03-22T11:51:32.806Z,4.72
2019-03-22T11:54:01.821Z,4.17
2019-03-22T11:56:28.165Z,8.23
2019-03-22T11:58:56.721Z,8.45
2019-03-22T12:01:23.593Z,10.20
2019-03-22T12:03:55.112Z,12.43
2019-03-22T12:06:24.085Z,15.13
2019-03-22T12:08:50.849Z,10.95
2019-03-22T12:11:19.363Z,8.10
2019-03-22T12:13:46.199Z,7.87
2019-03-22T12:16:14.866Z,10.08
2019-03-22T12:18:43.685Z,8.25
2019-03-22T12:21:10.613Z,9.85
2019-03-22T12:23:36.980Z,6.70
2019-03-22T12:26:03.264Z,6.08
2019-03-22T12:28:30.270Z,4.70
2019-03-22T12:31:02.719Z,11.92
2019-03-22T12:33:29.781Z,10.45
2019-03-22T12:35:59.364Z,11.45
2019-03-22T12:38:28.699Z,6.62
2019-03-22T12:40:58.893Z,9.73
2019-03-22T12:43:26.055Z,12.43
2019-03-22T12:45:54.574Z,9.23
2019-03-22T12:48:26.536Z,5.87
2019-03-22T12:50:53.264Z,4.53
2019-03-22T12:53:19.970Z,9.58
2019-03-22T12:55:48.687Z,10.60
2019-03-22T12:58:19.314Z,10.60
2019-03-22T13:00:45.948Z,11.25
2019-03-22T13:03:12.598Z,13.45
2019-03-22T13:05:44.358Z,12.65
2019-03-22T13:08:13.474Z,12.47
2019-03-22T13:10:40.615Z,10.98
2019-03-22T13:13:07.342Z,11.97
2019-03-22T13:15:33.918Z,11.57
2019-03-22T13:18:00.694Z,13.22
2019-03-22T13:20:27.505Z,16.57
2019-03-22T13:22:54.330Z,14.00
2019-03-22T13:25:22.795Z,11.65
2019-03-22T13:27:49.364Z,12.07
2019-03-22T13:30:19.606Z,9.05
2019-03-22T13:32:52.093Z,8.80
2019-03-22T13:35:18.583Z,8.83
2019-03-22T13:37:45.294Z,8.43
2019-03-22T13:40:14.093Z,13.32
2019-03-22T13:42:40.794Z,11.65
2019-03-22T13:45:07.280Z,11.05
2019-03-22T13:47:34.125Z,10.93
2019-03-22T13:50:00.368Z,9.50
2019-03-22T13:52:26.713Z,12.03
2019-03-22T13:54:53.518Z,9.80
2019-03-22T13:57:21.904Z,8.65
2019-03-22T13:59:51.693Z,9.63
2019-03-22T14:02:18.134Z,14.13
2019-03-22T14:04:44.613Z,12.70
2019-03-22T14:07:17.166Z,9.68
2019-03-22T14:09:46.245Z,8.98
2019-03-22T14:12:17.418Z,10.80
2019-03-22T14:14:44.726Z,8.10
2019-03-22T14:17:10.937Z,7.47
2019-03-22T14:19:37.250Z,10.72
2019-03-22T14:22:03.575Z,10.60
2019-03-22T14:24:29.683Z,9.30
2019-03-22T14:26:55.845Z,9.63
2019-03-22T14:29:21.986Z,8.93
2019-03-22T14:31:48.213Z,10.60
2019-03-22T14:34:14.563Z,8.58
2019-03-22T14:36:40.819Z,9.20
2019-03-22T14:39:07.675Z,9.10
2019-03-22T14:41:34.187Z,8.48
2019-03-22T14:44:00.441Z,9.18
2019-03-22T14:46:26.689Z,10.03
2019-03-22T14:48:53.026Z,10.40
2019-03-22T14:51:19.359Z,9.75
2019-03-22T14:53:45.581Z,9.65
2019-03-22T14:56:11.735Z,12.45
2019-03-22T14:58:37.884Z,12.07
2019-03-22T15:01:04.098Z,10.23
2019-03-22T15:03:30.268Z,8.93
2019-03-22T15:05:56.587Z,10.43
2019-03-22T15:08:22.908Z,11.25
2019-03-22T15:10:51.464Z,10.08
2019-03-22T15:13:18.414Z,10.18
2019-03-22T15:15:46.665Z,8.40
2019-03-22T15:18:20.672Z,7.58
2019-03-22T15:21:05.523Z,9.75
2019-03-22T15:23:51.775Z,9.03
2019-03-22T15:26:22.868Z,12.58
2019-03-22T15:28:53.830Z,10.13
2019-03-22T15:31:30.847Z,10.23
2019-03-22T15:34:11.213Z,11.45
2019-03-22T15:36:54.353Z,12.40
2019-03-22T15:39:29.059Z,15.48
2019-03-22T15:41:55.591Z,14.13
2019-03-22T15:46:48.067Z,11.30
2019-03-22T15:49:14.289Z,12.47
2019-03-22T15:51:40.464Z,11.15
2019-03-22T15:54:06.677Z,11.85
2019-03-22T15:56:33.163Z,12.23
2019-03-22T15:58:59.500Z,10.40
2019-03-22T16:01:25.877Z,10.55
2019-03-22T16:03:52.103Z,9.38
2019-03-22T16:06:18.402Z,9.80
2019-03-22T16:08:44.761Z,11.48
2019-03-22T16:11:10.888Z,12.13
2019-03-22T16:13:37.327Z,10.70
2019-03-22T16:16:03.653Z,11.95
2019-03-22T16:18:29.797Z,11.78
2019-03-22T16:21:00.002Z,11.25
2019-03-22T16:23:24.534Z,9.30
2019-03-22T16:25:50.779Z,11.45
2019-03-22T16:28:16.894Z,11.75
2019-03-22T16:30:43.142Z,12.23
2019-03-22T16:33:09.276Z,9.98
2019-03-22T16:35:35.507Z,10.38
2019-03-22T16:38:01.672Z,10.05
2019-03-22T16:40:27.965Z,10.80
2019-03-22T16:42:54.200Z,8.58
2019-03-22T16:45:35.567Z,7.55
2019-03-22T16:48:02.056Z,8.93
2019-03-22T16:50:28.501Z,13.43
2019-03-22T16:52:54.743Z,12.55
2019-03-22T16:55:21.586Z,11.22
2019-03-22T16:57:47.823Z,13.13
2019-03-22T17:00:14.470Z,12.50
2019-03-22T17:02:40.812Z,13.83
2019-03-22T17:05:07.499Z,13.68
2019-03-22T17:07:33.715Z,12.50
2019-03-22T17:09:59.889Z,17.98
2019-03-22T17:12:26.198Z,16.50
2019-03-22T17:14:52.357Z,14.93
2019-03-22T17:17:18.611Z,12.37
2019-03-22T17:19:44.995Z,11.12
2019-03-22T17:22:11.438Z,9.68
2019-03-22T17:24:37.591Z,9.68
2019-03-22T17:27:04.024Z,10.23
2019-03-22T17:29:30.143Z,9.10
2019-03-22T17:31:56.278Z,8.23
2019-03-22T17:34:22.430Z,7.42
2019-03-22T17:36:48.548Z,6.85
2019-03-22T17:39:15.051Z,6.50
2019-03-22T17:41:41.364Z,6.75
2019-03-22T17:44:07.537Z,6.25
2019-03-22T17:46:33.756Z,6.40
2019-03-22T17:48:59.980Z,5.92
2019-03-22T17:51:26.276Z,6.17
2019-03-22T17:53:52.721Z,6.50
2019-03-22T17:56:18.937Z,7.00
2019-03-22T17:58:45.274Z,6.42
2019-03-22T18:01:11.544Z,8.45
2019-03-22T18:03:37.779Z,7.45
2019-03-22T18:06:04.153Z,7.20
2019-03-22T18:08:30.394Z,7.65
2019-03-22T18:10:56.637Z,7.20
2019-03-22T18:13:22.794Z,7.90
2019-03-22T18:15:48.992Z,6.97
2019-03-22T18:18:15.244Z,7.97
2019-03-22T18:20:41.464Z,7.90
2019-03-22T18:23:07.598Z,7.97
2019-03-22T18:25:33.934Z,9.40
2019-03-22T18:28:00.184Z,8.70
2019-03-22T18:30:26.505Z,8.15
2019-03-22T18:32:52.649Z,8.40
2019-03-22T18:35:18.970Z,8.15
2019-03-22T18:37:45.232Z,9.55
2019-03-22T18:40:15.333Z,8.83
2019-03-22T18:42:41.810Z,7.87
2019-03-22T18:45:10.272Z,7.67
2019-03-22T18:47:36.665Z,7.93
2019-03-22T18:50:06.031Z,7.83
2019-03-22T18:52:32.257Z,8.77
2019-03-22T18:54:58.489Z,8.20
2019-03-22T18:57:24.712Z,8.20
2019-03-22T18:59:50.842Z,8.30
2019-03-22T19:02:16.980Z,7.57
2019-03-22T19:04:44.298Z,7.00
2019-03-22T19:07:10.857Z,7.43
2019-03-22T19:09:37.009Z,7.40
2019-03-22T19:12:03.243Z,6.80
2019-03-22T19:14:29.467Z,6.93
2019-03-22T19:16:55.868Z,6.63
2019-03-22T19:19:22.004Z,6.27
2019-03-22T19:21:48.315Z,5.77
2019-03-22T19:24:14.840Z,6.73
2019-03-22T19:26:41.482Z,6.63
2019-03-22T19:29:08.205Z,6.23
2019-03-22T19:31:34.575Z,6.37
2019-03-22T19:34:02.866Z,6.47
2019-03-22T19:36:29.274Z,7.37
2019-03-22T19:38:55.698Z,6.90
2019-03-22T19:41:22.084Z,6.57
2019-03-22T19:43:52.788Z,6.90
2019-03-22T19:46:19.041Z,6.70
2019-03-22T19:48:45.278Z,6.07
2019-03-22T19:51:11.536Z,5.93
2019-03-22T19:53:37.820Z,6.13
2019-03-22T19:56:04.087Z,6.10
2019-03-22T19:58:30.752Z,6.73
2019-03-22T20:00:57.121Z,6.33
2019-03-22T20:03:23.677Z,6.23
2019-03-22T20:05:50.420Z,6.17
2019-03-22T20:08:16.824Z,5.30
2019-03-22T20:10:43.058Z,7.03
2019-03-22T20:13:09.293Z,6.80
2019-03-22T20:15:37.333Z,7.07
2019-03-22T20:18:03.684Z,6.77
2019-03-22T20:20:30.012Z,7.33
2019-03-22T20:22:58.328Z,7.13
2019-03-22T20:25:24.563Z,6.80
2019-03-22T20:27:50.863Z,7.47
2019-03-22T20:30:18.622Z,7.17
2019-03-22T20:32:44.989Z,7.20
2019-03-22T20:35:16.584Z,8.10
2019-03-22T20:37:39.998Z,8.43
2019-03-22T20:40:09.252Z,8.17
2019-03-22T20:42:35.498Z,8.97
2019-03-22T20:45:02.841Z,9.00
2019-03-22T20:47:29.147Z,8.57
2019-03-22T20:49:55.603Z,8.73
2019-03-22T20:52:21.769Z,9.17
2019-03-22T20:54:47.979Z,9.53
2019-03-22T20:57:14.134Z,8.53
2019-03-22T20:59:40.311Z,8.33
2019-03-22T21:02:06.560Z,7.90
2019-03-22T21:04:32.791Z,8.67
2019-03-22T21:06:59.053Z,8.17
2019-03-22T21:09:25.310Z,7.73
2019-03-22T21:11:51.544Z,7.47
2019-03-22T21:14:17.898Z,7.93
2019-03-22T21:16:44.127Z,8.17
2019-03-22T21:19:10.386Z,9.43
2019-03-22T21:21:36.872Z,9.47
2019-03-22T21:24:03.893Z,9.07
2019-03-22T21:26:30.130Z,8.90
2019-03-22T21:28:56.369Z,8.63
2019-03-22T21:31:22.845Z,10.13
2019-03-22T21:33:52.698Z,9.13
2019-03-22T21:36:19.070Z,8.30
2019-03-22T21:38:50.549Z,8.30
2019-03-22T21:41:17.723Z,8.83
2019-03-22T21:43:44.287Z,7.70
2019-03-22T21:46:20.860Z,7.73
2019-03-22T21:48:48.412Z,7.27
2019-03-22T21:51:16.959Z,8.67
2019-03-22T21:53:45.933Z,8.53
2019-03-22T21:56:13.187Z,8.00
2019-03-22T21:58:42.218Z,7.63
2019-03-22T22:01:16.712Z,7.10
2019-03-22T22:03:44.463Z,7.22
2019-03-22T22:06:11.528Z,7.40
2019-03-22T22:08:37.758Z,7.67
2019-03-22T22:11:04.277Z,8.53
2019-03-22T22:13:32.134Z,8.47
2019-03-22T22:16:01.046Z,8.70
2019-03-22T22:18:27.419Z,9.70
2019-03-22T22:20:54.511Z,10.00
2019-03-22T22:23:21.182Z,10.50
2019-03-22T22:25:49.609Z,9.70
2019-03-22T22:28:18.677Z,8.50
2019-03-22T22:30:44.963Z,8.77
2019-03-22T22:33:14.413Z,8.83
2019-03-22T22:35:46.969Z,8.47
2019-03-22T22:38:20.738Z,8.50
2019-03-22T22:40:48.566Z,8.73
2019-03-22T22:43:19.624Z,8.20
2019-03-22T22:45:46.557Z,8.93
2019-03-22T22:48:13.802Z,8.80
2019-03-22T22:50:42.606Z,8.10
2019-03-22T22:53:17.434Z,11.40
2019-03-22T22:55:45.817Z,10.53
2019-03-22T22:58:14.858Z,12.43
2019-03-22T23:00:46.544Z,11.27
2019-03-22T23:03:16.813Z,12.17
2019-03-22T23:05:45.532Z,11.75
2019-03-22T23:08:18.681Z,10.93
2019-03-22T23:10:47.704Z,9.87
2019-03-22T23:13:15.664Z,11.50
2019-03-22T23:15:46.045Z,11.03
2019-03-22T23:18:12.547Z,13.03
2019-03-22T23:20:39.617Z,13.00
2019-03-22T23:23:08.808Z,14.10
2019-03-22T23:25:36.091Z,12.87
2019-03-22T23:28:10.578Z,12.77
2019-03-22T23:30:41.256Z,10.60
2019-03-22T23:33:10.096Z,11.93
2019-03-22T23:35:40.597Z,14.63
2019-03-22T23:38:07.839Z,12.37
2019-03-22T23:40:36.025Z,11.67
2019-03-22T23:43:08.943Z,12.23
2019-03-22T23:45:37.498Z,13.57
2019-03-22T23:48:06.204Z,15.20
2019-03-22T23:50:35.145Z,12.73
2019-03-22T23:53:05.820Z,12.40
2019-03-22T23:55:37.305Z,14.33
2019-03-22T23:58:07.969Z,13.80
